Airport View

Enter ICAO identifier to see the current METAR for that AWOS.

KFNL for example

KGDV 212135Z AUTO 06010KT 10SM CLR 21/17 A2999

21 Aug 2014 21:59

Frequency: 135.075

Phone: 406-687-3346

Other Area AWOS: K20U - KSDY - KBHK - KPO1

TAF AMD KGDV 211941Z 2120/2218 35008KT P6SM VCSH BKN040 BKN070 FM212300 34010KT 6SM -TSRA BKN035CB BKN050 FM220300 36008KT P6SM -SHRA OVC060 AMD LTD TO CLD VIS AND WIND